sensor_id;sensor_type;location;lat;lon;timestamp;pressure;altitude;pressure_sealevel;temperature;humidity
20624;BME280;10471;42.736;23.346;2023-07-20T00:00:01;95207.88;;;22.10;100.00
20624;BME280;10471;42.736;23.346;2023-07-20T00:02:26;95204.44;;;22.10;100.00
20624;BME280;10471;42.736;23.346;2023-07-20T00:04:52;95214.03;;;22.11;100.00
20624;BME280;10471;42.736;23.346;2023-07-20T00:07:17;95208.50;;;22.04;100.00
20624;BME280;10471;42.736;23.346;2023-07-20T00:09:43;95213.53;;;22.05;100.00
20624;BME280;10471;42.736;23.346;2023-07-20T00:12:08;95215.78;;;22.03;100.00
20624;BME280;10471;42.736;23.346;2023-07-20T00:14:34;95211.28;;;21.92;100.00
20624;BME280;10471;42.736;23.346;2023-07-20T00:16:59;95217.75;;;21.72;100.00
20624;BME280;10471;42.736;23.346;2023-07-20T00:19:27;95211.44;;;21.65;100.00
20624;BME280;10471;42.736;23.346;2023-07-20T00:21:54;95205.13;;;21.57;100.00
20624;BME280;10471;42.736;23.346;2023-07-20T00:24:20;95210.97;;;21.47;100.00
20624;BME280;10471;42.736;23.346;2023-07-20T00:26:45;95211.66;;;21.44;100.00
20624;BME280;10471;42.736;23.346;2023-07-20T00:29:11;95223.78;;;21.38;100.00
20624;BME280;10471;42.736;23.346;2023-07-20T00:31:36;95218.06;;;21.24;100.00
20624;BME280;10471;42.736;23.346;2023-07-20T00:34:05;95208.03;;;21.21;100.00
20624;BME280;10471;42.736;23.346;2023-07-20T00:36:31;95205.00;;;21.23;100.00
20624;BME280;10471;42.736;23.346;2023-07-20T00:38:56;95205.72;;;21.20;100.00
20624;BME280;10471;42.736;23.346;2023-07-20T00:41:22;95214.69;;;21.12;100.00
20624;BME280;10471;42.736;23.346;2023-07-20T00:43:47;95209.72;;;20.99;100.00
20624;BME280;10471;42.736;23.346;2023-07-20T00:46:13;95211.38;;;21.03;100.00
20624;BME280;10471;42.736;23.346;2023-07-20T00:48:40;95208.16;;;20.98;100.00
20624;BME280;10471;42.736;23.346;2023-07-20T00:51:06;95208.16;;;20.98;100.00
20624;BME280;10471;42.736;23.346;2023-07-20T00:53:32;95192.59;;;20.88;100.00
20624;BME280;10471;42.736;23.346;2023-07-20T00:55:57;95192.28;;;20.89;100.00
20624;BME280;10471;42.736;23.346;2023-07-20T00:58:23;95192.59;;;20.88;100.00
20624;BME280;10471;42.736;23.346;2023-07-20T01:00:49;95195.72;;;20.90;100.00
20624;BME280;10471;42.736;23.346;2023-07-20T01:03:14;95194.84;;;20.86;100.00
20624;BME280;10471;42.736;23.346;2023-07-20T01:13:52;95192.53;;;20.84;100.00
20624;BME280;10471;42.736;23.346;2023-07-20T01:16:18;95194.00;;;20.82;100.00
20624;BME280;10471;42.736;23.346;2023-07-20T01:18:43;95190.97;;;20.83;100.00
20624;BME280;10471;42.736;23.346;2023-07-20T01:21:16;95187.06;;;20.81;100.00
20624;BME280;10471;42.736;23.346;2023-07-20T01:26:50;95186.97;;;20.77;100.00
20624;BME280;10471;42.736;23.346;2023-07-20T01:29:41;95184.41;;;20.69;100.00
20624;BME280;10471;42.736;23.346;2023-07-20T01:32:08;95185.00;;;20.62;100.00
20624;BME280;10471;42.736;23.346;2023-07-20T01:34:35;95188.34;;;20.59;100.00
20624;BME280;10471;42.736;23.346;2023-07-20T01:37:02;95196.38;;;20.59;100.00
20624;BME280;10471;42.736;23.346;2023-07-20T01:39:28;95195.28;;;20.60;100.00
20624;BME280;10471;42.736;23.346;2023-07-20T01:41:55;95198.91;;;20.68;100.00
20624;BME280;10471;42.736;23.346;2023-07-20T01:44:21;95193.56;;;20.68;100.00
20624;BME280;10471;42.736;23.346;2023-07-20T01:46:46;95186.88;;;20.62;100.00
20624;BME280;10471;42.736;23.346;2023-07-20T01:49:11;95189.16;;;20.60;100.00
20624;BME280;10471;42.736;23.346;2023-07-20T01:51:37;95193.63;;;20.56;100.00
20624;BME280;10471;42.736;23.346;2023-07-20T01:54:02;95187.81;;;20.54;100.00
20624;BME280;10471;42.736;23.346;2023-07-20T01:56:28;95193.78;;;20.47;100.00
20624;BME280;10471;42.736;23.346;2023-07-20T01:58:53;95188.31;;;20.44;100.00
20624;BME280;10471;42.736;23.346;2023-07-20T02:01:18;95181.41;;;20.43;100.00
20624;BME280;10471;42.736;23.346;2023-07-20T02:03:44;95185.88;;;20.39;100.00
20624;BME280;10471;42.736;23.346;2023-07-20T02:06:09;95179.84;;;20.42;100.00
20624;BME280;10471;42.736;23.346;2023-07-20T02:08:35;95177.59;;;20.44;100.00
20624;BME280;10471;42.736;23.346;2023-07-20T02:11:01;95175.06;;;20.36;100.00
20624;BME280;10471;42.736;23.346;2023-07-20T02:13:26;95173.50;;;20.35;100.00
20624;BME280;10471;42.736;23.346;2023-07-20T02:15:51;95181.88;;;20.33;100.00
20624;BME280;10471;42.736;23.346;2023-07-20T02:18:17;95187.03;;;20.26;100.00
20624;BME280;10471;42.736;23.346;2023-07-20T02:20:42;95188.16;;;20.25;100.00
20624;BME280;10471;42.736;23.346;2023-07-20T02:23:08;95184.69;;;20.25;100.00
20624;BME280;10471;42.736;23.346;2023-07-20T02:25:33;95182.59;;;20.18;100.00
20624;BME280;10471;42.736;23.346;2023-07-20T02:27:58;95185.06;;;20.11;100.00
20624;BME280;10471;42.736;23.346;2023-07-20T02:30:24;95176.59;;;20.09;100.00
20624;BME280;10471;42.736;23.346;2023-07-20T02:32:49;95170.13;;;20.10;100.00
20624;BME280;10471;42.736;23.346;2023-07-20T02:35:15;95172.03;;;20.10;100.00
20624;BME280;10471;42.736;23.346;2023-07-20T02:37:41;95165.13;;;20.09;100.00
20624;BME280;10471;42.736;23.346;2023-07-20T02:40:07;95172.81;;;20.10;100.00
20624;BME280;10471;42.736;23.346;2023-07-20T02:42:33;95157.31;;;20.04;100.00
20624;BME280;10471;42.736;23.346;2023-07-20T02:44:58;95158.78;;;20.01;100.00
20624;BME280;10471;42.736;23.346;2023-07-20T02:47:23;95159.47;;;19.98;100.00
20624;BME280;10471;42.736;23.346;2023-07-20T02:49:49;95149.88;;;19.97;100.00
20624;BME280;10471;42.736;23.346;2023-07-20T02:52:14;95155.47;;;19.92;100.00
20624;BME280;10471;42.736;23.346;2023-07-20T02:54:40;95156.09;;;19.89;100.00
20624;BME280;10471;42.736;23.346;2023-07-20T02:57:05;95158.00;;;19.89;100.00
20624;BME280;10471;42.736;23.346;2023-07-20T02:59:31;95156.78;;;19.86;100.00
20624;BME280;10471;42.736;23.346;2023-07-20T03:01:56;95165.91;;;19.85;100.00
20624;BME280;10471;42.736;23.346;2023-07-20T03:04:23;95165.91;;;19.85;100.00
20624;BME280;10471;42.736;23.346;2023-07-20T03:06:50;95171.28;;;19.85;100.00
20624;BME280;10471;42.736;23.346;2023-07-20T03:09:16;95167.72;;;19.81;100.00
20624;BME280;10471;42.736;23.346;2023-07-20T03:11:41;95162.91;;;19.87;100.00
20624;BME280;10471;42.736;23.346;2023-07-20T03:14:06;95171.97;;;19.82;100.00
20624;BME280;10471;42.736;23.346;2023-07-20T03:16:32;95173.41;;;19.80;100.00
20624;BME280;10471;42.736;23.346;2023-07-20T03:18:59;95184.00;;;19.76;100.00
20624;BME280;10471;42.736;23.346;2023-07-20T03:21:25;95177.78;;;19.73;100.00
20624;BME280;10471;42.736;23.346;2023-07-20T03:23:51;95178.53;;;19.73;100.00
20624;BME280;10471;42.736;23.346;2023-07-20T03:26:16;95178.19;;;19.63;100.00
20624;BME280;10471;42.736;23.346;2023-07-20T03:28:42;95176.44;;;19.55;100.00
20624;BME280;10471;42.736;23.346;2023-07-20T03:31:07;95183.69;;;19.42;100.00
20624;BME280;10471;42.736;23.346;2023-07-20T03:33:33;95173.97;;;19.38;100.00
20624;BME280;10471;42.736;23.346;2023-07-20T03:35:59;95169.09;;;19.40;100.00
20624;BME280;10471;42.736;23.346;2023-07-20T03:38:25;95180.44;;;19.37;100.00
20624;BME280;10471;42.736;23.346;2023-07-20T03:40:59;95192.38;;;19.27;100.00
20624;BME280;10471;42.736;23.346;2023-07-20T03:43:26;95186.94;;;19.36;100.00
20624;BME280;10471;42.736;23.346;2023-07-20T03:45:52;95190.25;;;19.33;100.00
20624;BME280;10471;42.736;23.346;2023-07-20T03:48:20;95175.31;;;19.44;100.00
20624;BME280;10471;42.736;23.346;2023-07-20T03:50:47;95181.56;;;19.48;100.00
20624;BME280;10471;42.736;23.346;2023-07-20T03:53:13;95182.25;;;19.45;100.00
20624;BME280;10471;42.736;23.346;2023-07-20T03:55:39;95181.03;;;19.54;100.00
20624;BME280;10471;42.736;23.346;2023-07-20T03:58:08;95170.88;;;19.60;100.00
20624;BME280;10471;42.736;23.346;2023-07-20T04:00:34;95184.69;;;19.62;100.00
20624;BME280;10471;42.736;23.346;2023-07-20T04:03:00;95191.16;;;19.61;100.00
20624;BME280;10471;42.736;23.346;2023-07-20T04:05:25;95192.03;;;19.65;100.00
20624;BME280;10471;42.736;23.346;2023-07-20T04:07:51;95190.91;;;19.77;100.00
20624;BME280;10471;42.736;23.346;2023-07-20T04:10:17;95193.56;;;19.89;100.00
20624;BME280;10471;42.736;23.346;2023-07-20T04:12:44;95201.59;;;20.01;100.00
20624;BME280;10471;42.736;23.346;2023-07-20T04:15:09;95198.91;;;20.13;100.00
20624;BME280;10471;42.736;23.346;2023-07-20T04:17:35;95179.94;;;20.18;100.00
20624;BME280;10471;42.736;23.346;2023-07-20T04:20:00;95173.66;;;20.26;100.00
20624;BME280;10471;42.736;23.346;2023-07-20T04:22:26;95177.28;;;20.34;100.00
20624;BME280;10471;42.736;23.346;2023-07-20T04:24:52;95178.88;;;20.35;100.00
20624;BME280;10471;42.736;23.346;2023-07-20T04:27:17;95175.84;;;20.36;100.00
20624;BME280;10471;42.736;23.346;2023-07-20T04:29:43;95165.94;;;20.37;100.00
20624;BME280;10471;42.736;23.346;2023-07-20T04:32:08;95171.38;;;20.40;100.00
20624;BME280;10471;42.736;23.346;2023-07-20T04:34:34;95175.34;;;20.46;100.00
20624;BME280;10471;42.736;23.346;2023-07-20T04:37:03;95172.88;;;20.53;100.00
20624;BME280;10471;42.736;23.346;2023-07-20T04:39:28;95157.66;;;20.57;100.00
20624;BME280;10471;42.736;23.346;2023-07-20T04:41:53;95154.94;;;20.69;100.00
20624;BME280;10471;42.736;23.346;2023-07-20T04:44:19;95157.84;;;20.76;100.00
20624;BME280;10471;42.736;23.346;2023-07-20T04:46:44;95157.25;;;20.82;100.00
20624;BME280;10471;42.736;23.346;2023-07-20T04:49:10;95162.00;;;20.89;100.00
20624;BME280;10471;42.736;23.346;2023-07-20T04:51:38;95161.31;;;20.92;100.00
20624;BME280;10471;42.736;23.346;2023-07-20T04:54:03;95157.00;;;21.03;100.00
20624;BME280;10471;42.736;23.346;2023-07-20T04:56:29;95154.84;;;21.08;100.00
20624;BME280;10471;42.736;23.346;2023-07-20T04:58:54;95158.63;;;21.07;100.00
20624;BME280;10471;42.736;23.346;2023-07-20T05:01:20;95158.22;;;21.20;100.00
20624;BME280;10471;42.736;23.346;2023-07-20T05:03:45;95162.63;;;21.28;100.00
20624;BME280;10471;42.736;23.346;2023-07-20T05:06:10;95166.19;;;21.32;100.00
20624;BME280;10471;42.736;23.346;2023-07-20T05:08:36;95172.84;;;21.38;100.00
20624;BME280;10471;42.736;23.346;2023-07-20T05:11:01;95169.41;;;21.53;100.00
20624;BME280;10471;42.736;23.346;2023-07-20T05:13:27;95175.25;;;21.59;100.00
20624;BME280;10471;42.736;23.346;2023-07-20T05:15:52;95183.56;;;21.54;100.00
20624;BME280;10471;42.736;23.346;2023-07-20T05:18:19;95183.84;;;21.64;100.00
20624;BME280;10471;42.736;23.346;2023-07-20T05:20:48;95169.72;;;21.67;100.00
20624;BME280;10471;42.736;23.346;2023-07-20T05:23:14;95173.25;;;21.71;100.00
20624;BME280;10471;42.736;23.346;2023-07-20T05:25:41;95174.63;;;21.65;100.00
20624;BME280;10471;42.736;23.346;2023-07-20T05:28:06;95174.03;;;21.72;100.00
20624;BME280;10471;42.736;23.346;2023-07-20T05:30:31;95171.44;;;21.75;100.00
20624;BME280;10471;42.736;23.346;2023-07-20T05:32:57;95180.47;;;21.86;100.00
20624;BME280;10471;42.736;23.346;2023-07-20T05:35:22;95171.47;;;21.94;100.00
20624;BME280;10471;42.736;23.346;2023-07-20T05:37:48;95178.22;;;22.03;100.00
20624;BME280;10471;42.736;23.346;2023-07-20T05:40:16;95175.66;;;22.10;100.00
20624;BME280;10471;42.736;23.346;2023-07-20T05:42:46;95196.50;;;22.17;100.00
20624;BME280;10471;42.736;23.346;2023-07-20T05:45:13;95198.22;;;22.25;100.00
20624;BME280;10471;42.736;23.346;2023-07-20T05:47:39;95207.97;;;22.14;100.00
20624;BME280;10471;42.736;23.346;2023-07-20T05:50:05;95196.28;;;22.06;100.00
20624;BME280;10471;42.736;23.346;2023-07-20T05:52:30;95198.22;;;22.25;100.00
20624;BME280;10471;42.736;23.346;2023-07-20T05:54:56;95187.78;;;22.39;100.00
20624;BME280;10471;42.736;23.346;2023-07-20T05:57:21;95193.53;;;22.56;100.00
20624;BME280;10471;42.736;23.346;2023-07-20T05:59:47;95193.59;;;22.59;100.00
20624;BME280;10471;42.736;23.346;2023-07-20T06:02:12;95184.41;;;22.60;100.00
20624;BME280;10471;42.736;23.346;2023-07-20T06:04:39;95182.25;;;22.69;100.00
20624;BME280;10471;42.736;23.346;2023-07-20T06:07:05;95186.50;;;22.89;100.00
20624;BME280;10471;42.736;23.346;2023-07-20T06:09:30;95192.16;;;23.03;100.00
20624;BME280;10471;42.736;23.346;2023-07-20T06:11:56;95194.03;;;23.21;100.00
20624;BME280;10471;42.736;23.346;2023-07-20T06:14:22;95187.31;;;23.12;100.00
20624;BME280;10471;42.736;23.346;2023-07-20T06:16:47;95188.59;;;23.18;100.00
20624;BME280;10471;42.736;23.346;2023-07-20T06:19:12;95197.97;;;23.27;100.00
20624;BME280;10471;42.736;23.346;2023-07-20T06:21:38;95187.25;;;23.31;100.00
20624;BME280;10471;42.736;23.346;2023-07-20T06:24:04;95176.31;;;23.43;100.00
20624;BME280;10471;42.736;23.346;2023-07-20T06:26:30;95181.28;;;23.63;100.00
20624;BME280;10471;42.736;23.346;2023-07-20T06:28:56;95171.81;;;23.73;100.00
20624;BME280;10471;42.736;23.346;2023-07-20T06:31:21;95163.19;;;23.86;100.00
20624;BME280;10471;42.736;23.346;2023-07-20T06:33:47;95166.84;;;24.00;100.00
20624;BME280;10471;42.736;23.346;2023-07-20T06:36:12;95176.34;;;24.20;100.00
20624;BME280;10471;42.736;23.346;2023-07-20T06:38:38;95169.28;;;24.38;100.00
20624;BME280;10471;42.736;23.346;2023-07-20T06:41:03;95178.09;;;24.35;100.00
20624;BME280;10471;42.736;23.346;2023-07-20T06:43:29;95164.56;;;24.61;100.00
20624;BME280;10471;42.736;23.346;2023-07-20T06:45:54;95170.81;;;24.65;100.00
20624;BME280;10471;42.736;23.346;2023-07-20T06:48:21;95173.88;;;24.67;100.00
20624;BME280;10471;42.736;23.346;2023-07-20T06:50:46;95176.59;;;24.67;100.00
20624;BME280;10471;42.736;23.346;2023-07-20T06:53:12;95172.44;;;24.73;100.00
20624;BME280;10471;42.736;23.346;2023-07-20T06:55:37;95181.00;;;24.82;100.00
20624;BME280;10471;42.736;23.346;2023-07-20T06:58:03;95185.16;;;25.09;100.00
20624;BME280;10471;42.736;23.346;2023-07-20T07:00:28;95190.72;;;25.22;100.00
20624;BME280;10471;42.736;23.346;2023-07-20T07:02:54;95198.69;;;25.48;100.00
20624;BME280;10471;42.736;23.346;2023-07-20T07:05:19;95202.97;;;25.56;100.00
20624;BME280;10471;42.736;23.346;2023-07-20T07:07:45;95197.03;;;25.83;100.00
20624;BME280;10471;42.736;23.346;2023-07-20T07:10:10;95196.03;;;26.05;100.00
20624;BME280;10471;42.736;23.346;2023-07-20T07:12:35;95210.66;;;26.01;100.00
20624;BME280;10471;42.736;23.346;2023-07-20T07:15:02;95211.44;;;25.98;96.81
20624;BME280;10471;42.736;23.346;2023-07-20T07:17:27;95224.53;;;25.96;97.27
20624;BME280;10471;42.736;23.346;2023-07-20T07:19:53;95240.75;;;25.96;99.38
20624;BME280;10471;42.736;23.346;2023-07-20T07:22:21;95245.16;;;25.71;98.70
20624;BME280;10471;42.736;23.346;2023-07-20T07:24:47;95236.22;;;25.64;100.00
20624;BME280;10471;42.736;23.346;2023-07-20T07:27:12;95248.31;;;25.77;94.87
20624;BME280;10471;42.736;23.346;2023-07-20T07:29:38;95252.25;;;25.86;100.00
20624;BME280;10471;42.736;23.346;2023-07-20T07:32:03;95245.47;;;25.63;98.24
20624;BME280;10471;42.736;23.346;2023-07-20T07:34:29;95235.16;;;25.72;96.35
20624;BME280;10471;42.736;23.346;2023-07-20T07:36:54;95225.63;;;25.84;93.95
20624;BME280;10471;42.736;23.346;2023-07-20T07:39:20;95220.31;;;25.95;90.83
20624;BME280;10471;42.736;23.346;2023-07-20T07:41:45;95232.19;;;25.87;90.36
20624;BME280;10471;42.736;23.346;2023-07-20T07:44:10;95237.66;;;25.94;87.43
20624;BME280;10471;42.736;23.346;2023-07-20T07:46:37;95224.59;;;26.03;90.68
20624;BME280;10471;42.736;23.346;2023-07-20T07:49:02;95211.16;;;26.17;89.80
20624;BME280;10471;42.736;23.346;2023-07-20T07:51:28;95177.59;;;26.18;93.85
20624;BME280;10471;42.736;23.346;2023-07-20T07:53:54;95177.72;;;26.39;91.90
20624;BME280;10471;42.736;23.346;2023-07-20T07:56:20;95194.84;;;26.60;91.50
20624;BME280;10471;42.736;23.346;2023-07-20T07:58:51;95191.41;;;26.70;90.16
20624;BME280;10471;42.736;23.346;2023-07-20T08:01:17;95185.59;;;26.71;90.69
20624;BME280;10471;42.736;23.346;2023-07-20T08:03:44;95197.63;;;26.84;94.39
20624;BME280;10471;42.736;23.346;2023-07-20T08:06:12;95211.59;;;26.97;94.23
20624;BME280;10471;42.736;23.346;2023-07-20T08:08:38;95222.06;;;26.98;92.45
20624;BME280;10471;42.736;23.346;2023-07-20T08:11:04;95226.63;;;26.87;91.00
20624;BME280;10471;42.736;23.346;2023-07-20T08:13:29;95236.69;;;26.90;90.64
20624;BME280;10471;42.736;23.346;2023-07-20T08:15:55;95232.94;;;27.12;93.31
20624;BME280;10471;42.736;23.346;2023-07-20T08:18:20;95241.47;;;27.14;92.71
20624;BME280;10471;42.736;23.346;2023-07-20T08:20:46;95232.38;;;26.75;92.21
20624;BME280;10471;42.736;23.346;2023-07-20T08:23:13;95239.69;;;26.68;91.99
20624;BME280;10471;42.736;23.346;2023-07-20T08:25:39;95236.28;;;26.17;90.31
20624;BME280;10471;42.736;23.346;2023-07-20T08:28:17;95245.72;;;26.41;92.04
20624;BME280;10471;42.736;23.346;2023-07-20T08:30:45;95228.72;;;26.37;84.36
20624;BME280;10471;42.736;23.346;2023-07-20T08:33:13;95226.06;;;26.47;79.14
20624;BME280;10471;42.736;23.346;2023-07-20T08:35:38;95224.13;;;26.48;80.00
20624;BME280;10471;42.736;23.346;2023-07-20T08:38:04;95233.91;;;26.69;75.59
20624;BME280;10471;42.736;23.346;2023-07-20T08:40:31;95228.88;;;26.68;77.30
20624;BME280;10471;42.736;23.346;2023-07-20T08:42:58;95225.00;;;26.69;77.13
20624;BME280;10471;42.736;23.346;2023-07-20T08:45:26;95230.47;;;26.79;78.16
20624;BME280;10471;42.736;23.346;2023-07-20T08:47:54;95224.78;;;27.02;78.85
20624;BME280;10471;42.736;23.346;2023-07-20T08:50:21;95223.50;;;26.82;74.49
20624;BME280;10471;42.736;23.346;2023-07-20T08:52:48;95213.97;;;26.98;78.40
20624;BME280;10471;42.736;23.346;2023-07-20T08:55:13;95228.34;;;27.30;76.05
20624;BME280;10471;42.736;23.346;2023-07-20T08:57:39;95223.31;;;27.32;75.95
20624;BME280;10471;42.736;23.346;2023-07-20T09:00:07;95208.25;;;27.48;75.54
20624;BME280;10471;42.736;23.346;2023-07-20T09:02:39;95202.88;;;27.86;78.01
20624;BME280;10471;42.736;23.346;2023-07-20T09:05:08;95204.03;;;27.72;71.03
20624;BME280;10471;42.736;23.346;2023-07-20T09:07:35;95201.31;;;27.79;72.47
20624;BME280;10471;42.736;23.346;2023-07-20T09:10:02;95199.38;;;27.83;67.44
20624;BME280;10471;42.736;23.346;2023-07-20T09:12:32;95200.94;;;27.94;64.34
20624;BME280;10471;42.736;23.346;2023-07-20T09:14:58;95205.97;;;27.88;67.12
20624;BME280;10471;42.736;23.346;2023-07-20T09:17:25;95202.09;;;27.93;62.22
20624;BME280;10471;42.736;23.346;2023-07-20T09:19:51;95189.34;;;27.86;61.92
20624;BME280;10471;42.736;23.346;2023-07-20T09:22:16;95184.28;;;27.95;61.46
20624;BME280;10471;42.736;23.346;2023-07-20T09:24:42;95184.63;;;28.32;63.08
20624;BME280;10471;42.736;23.346;2023-07-20T09:27:08;95171.81;;;28.47;63.01
20624;BME280;10471;42.736;23.346;2023-07-20T09:29:35;95169.41;;;28.76;66.12
20624;BME280;10471;42.736;23.346;2023-07-20T09:32:12;95177.94;;;28.75;58.67
20624;BME280;10471;42.736;23.346;2023-07-20T09:34:37;95176.63;;;29.04;58.20
20624;BME280;10471;42.736;23.346;2023-07-20T09:37:03;95176.22;;;29.02;55.07
20624;BME280;10471;42.736;23.346;2023-07-20T09:39:29;95190.31;;;28.72;54.14
20624;BME280;10471;42.736;23.346;2023-07-20T09:41:54;95176.44;;;28.53;55.52
20624;BME280;10471;42.736;23.346;2023-07-20T09:44:27;95185.25;;;28.88;56.65
20624;BME280;10471;42.736;23.346;2023-07-20T09:46:53;95178.38;;;29.31;53.23
20624;BME280;10471;42.736;23.346;2023-07-20T09:49:19;95176.06;;;29.29;50.21
20624;BME280;10471;42.736;23.346;2023-07-20T09:51:45;95173.94;;;29.61;50.60
20624;BME280;10471;42.736;23.346;2023-07-20T09:54:11;95151.13;;;29.99;53.70
20624;BME280;10471;42.736;23.346;2023-07-20T09:56:38;95143.00;;;29.95;50.76
20624;BME280;10471;42.736;23.346;2023-07-20T09:59:04;95133.56;;;30.03;51.26
20624;BME280;10471;42.736;23.346;2023-07-20T10:01:32;95142.91;;;30.02;50.73
20624;BME280;10471;42.736;23.346;2023-07-20T10:03:58;95144.16;;;29.47;51.59
20624;BME280;10471;42.736;23.346;2023-07-20T10:06:28;95138.34;;;29.45;52.00
20624;BME280;10471;42.736;23.346;2023-07-20T10:09:02;95151.88;;;29.52;53.20
20624;BME280;10471;42.736;23.346;2023-07-20T10:11:32;95154.22;;;29.50;51.66
20624;BME280;10471;42.736;23.346;2023-07-20T10:14:03;95150.25;;;29.62;53.60
20624;BME280;10471;42.736;23.346;2023-07-20T10:16:34;95148.38;;;29.52;51.47
20624;BME280;10471;42.736;23.346;2023-07-20T10:19:11;95156.09;;;29.60;52.50
20624;BME280;10471;42.736;23.346;2023-07-20T10:21:42;95151.81;;;29.59;51.84
20624;BME280;10471;42.736;23.346;2023-07-20T10:24:10;95155.25;;;29.67;51.56
20624;BME280;10471;42.736;23.346;2023-07-20T10:26:36;95169.53;;;29.78;52.66
20624;BME280;10471;42.736;23.346;2023-07-20T10:29:02;95165.59;;;29.89;52.08
20624;BME280;10471;42.736;23.346;2023-07-20T10:31:29;95145.06;;;29.78;51.89
20624;BME280;10471;42.736;23.346;2023-07-20T10:33:56;95122.16;;;29.75;48.81
20624;BME280;10471;42.736;23.346;2023-07-20T10:36:26;95120.97;;;29.80;52.86
20624;BME280;10471;42.736;23.346;2023-07-20T10:38:57;95150.69;;;29.53;57.65
20624;BME280;10471;42.736;23.346;2023-07-20T10:41:34;95155.22;;;29.16;57.99
20624;BME280;10471;42.736;23.346;2023-07-20T10:44:04;95143.59;;;29.12;60.83
20624;BME280;10471;42.736;23.346;2023-07-20T10:49:06;95124.84;;;29.35;52.96
20624;BME280;10471;42.736;23.346;2023-07-20T10:51:46;95098.41;;;29.42;50.49
20624;BME280;10471;42.736;23.346;2023-07-20T10:56:42;95101.41;;;29.95;51.69
20624;BME280;10471;42.736;23.346;2023-07-20T10:59:37;95120.28;;;30.12;51.32
20624;BME280;10471;42.736;23.346;2023-07-20T11:02:07;95120.28;;;30.12;50.27
20624;BME280;10471;42.736;23.346;2023-07-20T11:04:43;95104.94;;;30.29;51.26
20624;BME280;10471;42.736;23.346;2023-07-20T11:07:09;95104.19;;;30.61;48.12
20624;BME280;10471;42.736;23.346;2023-07-20T11:09:38;95095.28;;;30.87;45.66
20624;BME280;10471;42.736;23.346;2023-07-20T11:12:13;95096.69;;;30.99;45.22
20624;BME280;10471;42.736;23.346;2023-07-20T11:14:43;95083.75;;;31.06;45.19
20624;BME280;10471;42.736;23.346;2023-07-20T11:17:13;95093.00;;;31.12;44.73
20624;BME280;10471;42.736;23.346;2023-07-20T11:19:39;95088.94;;;30.97;45.77
20624;BME280;10471;42.736;23.346;2023-07-20T11:22:07;95081.72;;;30.84;46.52
20624;BME280;10471;42.736;23.346;2023-07-20T11:24:34;95079.69;;;30.88;45.57
20624;BME280;10471;42.736;23.346;2023-07-20T11:26:59;95078.03;;;30.97;44.42
20624;BME280;10471;42.736;23.346;2023-07-20T11:29:26;95077.94;;;30.74;47.22
20624;BME280;10471;42.736;23.346;2023-07-20T11:31:52;95078.88;;;30.91;45.62
20624;BME280;10471;42.736;23.346;2023-07-20T11:34:20;95080.38;;;30.95;46.84
20624;BME280;10471;42.736;23.346;2023-07-20T11:36:48;95065.34;;;30.57;46.19
20624;BME280;10471;42.736;23.346;2023-07-20T11:39:15;95064.94;;;30.59;47.43
20624;BME280;10471;42.736;23.346;2023-07-20T11:41:46;95056.25;;;30.97;48.71
20624;BME280;10471;42.736;23.346;2023-07-20T11:44:12;95064.09;;;31.41;49.48
20624;BME280;10471;42.736;23.346;2023-07-20T11:46:39;95056.66;;;31.68;46.31
20624;BME280;10471;42.736;23.346;2023-07-20T11:49:05;95054.38;;;31.17;45.26
20624;BME280;10471;42.736;23.346;2023-07-20T11:51:31;95054.81;;;31.38;45.90
20624;BME280;10471;42.736;23.346;2023-07-20T11:53:57;95051.91;;;31.26;44.80
20624;BME280;10471;42.736;23.346;2023-07-20T11:56:24;95041.13;;;31.19;45.11
20624;BME280;10471;42.736;23.346;2023-07-20T11:58:50;95048.25;;;31.59;45.99
20624;BME280;10471;42.736;23.346;2023-07-20T12:01:16;95046.81;;;31.51;43.15
20624;BME280;10471;42.736;23.346;2023-07-20T12:03:43;95039.19;;;31.42;41.79
20624;BME280;10471;42.736;23.346;2023-07-20T12:06:13;95046.00;;;31.54;43.93
20624;BME280;10471;42.736;23.346;2023-07-20T12:08:43;95032.03;;;31.94;44.10
20624;BME280;10471;42.736;23.346;2023-07-20T12:11:09;95032.13;;;32.29;43.84
20624;BME280;10471;42.736;23.346;2023-07-20T12:16:10;95019.50;;;32.74;44.23
20624;BME280;10471;42.736;23.346;2023-07-20T12:18:36;95009.94;;;32.98;42.56
20624;BME280;10471;42.736;23.346;2023-07-20T12:21:01;95011.97;;;32.78;42.27
20624;BME280;10471;42.736;23.346;2023-07-20T12:23:35;95012.81;;;32.75;43.11
20624;BME280;10471;42.736;23.346;2023-07-20T12:26:01;95015.38;;;32.82;42.22
20624;BME280;10471;42.736;23.346;2023-07-20T12:28:26;95009.59;;;32.96;41.94
20624;BME280;10471;42.736;23.346;2023-07-20T12:30:51;95004.13;;;32.96;42.18
20624;BME280;10471;42.736;23.346;2023-07-20T12:33:22;95010.50;;;32.73;39.76
20624;BME280;10471;42.736;23.346;2023-07-20T12:35:48;94999.56;;;33.25;41.11
20624;BME280;10471;42.736;23.346;2023-07-20T12:38:15;94998.16;;;33.48;41.65
20624;BME280;10471;42.736;23.346;2023-07-20T12:40:41;94994.91;;;33.69;39.09
20624;BME280;10471;42.736;23.346;2023-07-20T12:43:06;94993.22;;;33.59;38.77
20624;BME280;10471;42.736;23.346;2023-07-20T12:45:32;94994.41;;;32.95;37.12
20624;BME280;10471;42.736;23.346;2023-07-20T12:47:58;94996.97;;;33.33;38.19
20624;BME280;10471;42.736;23.346;2023-07-20T12:50:23;95004.16;;;33.43;38.38
20624;BME280;10471;42.736;23.346;2023-07-20T12:52:49;94986.22;;;32.95;38.09
20624;BME280;10471;42.736;23.346;2023-07-20T12:55:14;94980.88;;;33.07;38.68
20624;BME280;10471;42.736;23.346;2023-07-20T12:57:40;94986.91;;;33.30;38.78
20624;BME280;10471;42.736;23.346;2023-07-20T13:00:08;94979.91;;;33.29;38.20